sensor_id;sensor_type;location;lat;lon;timestamp;P1;durP1;ratioP1;P2;durP2;ratioP2
54025;SDS011;74404;50.662;3.398;2024-03-02T00:00:20;0.75;;;0.75;;
54025;SDS011;74404;50.662;3.398;2024-03-02T00:02:48;1.27;;;1.08;;
54025;SDS011;74404;50.662;3.398;2024-03-02T00:05:15;2.88;;;1.00;;
54025;SDS011;74404;50.662;3.398;2024-03-02T00:07:43;1.10;;;0.80;;
54025;SDS011;74404;50.662;3.398;2024-03-02T00:10:10;1.85;;;0.98;;
54025;SDS011;74404;50.662;3.398;2024-03-02T00:12:37;2.17;;;1.00;;
54025;SDS011;74404;50.662;3.398;2024-03-02T00:15:06;1.20;;;0.85;;
54025;SDS011;74404;50.662;3.398;2024-03-02T00:18:02;1.88;;;1.10;;
54025;SDS011;74404;50.662;3.398;2024-03-02T00:20:29;0.68;;;0.68;;
54025;SDS011;74404;50.662;3.398;2024-03-02T00:23:29;1.02;;;0.82;;
54025;SDS011;74404;50.662;3.398;2024-03-02T00:25:51;1.00;;;0.90;;
54025;SDS011;74404;50.662;3.398;2024-03-02T00:33:19;2.15;;;1.10;;
54025;SDS011;74404;50.662;3.398;2024-03-02T00:35:48;2.47;;;1.05;;
54025;SDS011;74404;50.662;3.398;2024-03-02T00:38:14;2.67;;;1.00;;
54025;SDS011;74404;50.662;3.398;2024-03-02T00:40:41;3.63;;;1.10;;
54025;SDS011;74404;50.662;3.398;2024-03-02T00:43:19;2.00;;;0.90;;
54025;SDS011;74404;50.662;3.398;2024-03-02T00:46:12;1.58;;;1.10;;
54025;SDS011;74404;50.662;3.398;2024-03-02T00:48:47;1.55;;;0.90;;
54025;SDS011;74404;50.662;3.398;2024-03-02T00:51:16;1.63;;;1.00;;
54025;SDS011;74404;50.662;3.398;2024-03-02T00:53:41;1.88;;;0.95;;
54025;SDS011;74404;50.662;3.398;2024-03-02T00:56:08;1.90;;;1.02;;
54025;SDS011;74404;50.662;3.398;2024-03-02T00:58:37;1.60;;;1.00;;
54025;SDS011;74404;50.662;3.398;2024-03-02T01:01:02;1.23;;;1.02;;
54025;SDS011;74404;50.662;3.398;2024-03-02T01:03:28;2.15;;;1.20;;
54025;SDS011;74404;50.662;3.398;2024-03-02T01:05:53;1.25;;;1.10;;
54025;SDS011;74404;50.662;3.398;2024-03-02T01:08:19;2.38;;;1.10;;
54025;SDS011;74404;50.662;3.398;2024-03-02T01:10:44;1.75;;;1.20;;
54025;SDS011;74404;50.662;3.398;2024-03-02T01:13:10;2.17;;;1.05;;
54025;SDS011;74404;50.662;3.398;2024-03-02T01:15:35;1.70;;;1.02;;
54025;SDS011;74404;50.662;3.398;2024-03-02T01:18:01;1.25;;;0.90;;
54025;SDS011;74404;50.662;3.398;2024-03-02T01:20:26;3.45;;;1.00;;
54025;SDS011;74404;50.662;3.398;2024-03-02T01:22:52;2.92;;;1.40;;
54025;SDS011;74404;50.662;3.398;2024-03-02T01:25:18;2.88;;;1.23;;
54025;SDS011;74404;50.662;3.398;2024-03-02T01:27:44;1.80;;;1.17;;
54025;SDS011;74404;50.662;3.398;2024-03-02T01:30:09;1.67;;;1.30;;
54025;SDS011;74404;50.662;3.398;2024-03-02T01:32:37;1.60;;;1.30;;
54025;SDS011;74404;50.662;3.398;2024-03-02T01:35:03;2.50;;;1.17;;
54025;SDS011;74404;50.662;3.398;2024-03-02T01:37:30;1.95;;;1.50;;
54025;SDS011;74404;50.662;3.398;2024-03-02T01:39:55;2.55;;;1.40;;
54025;SDS011;74404;50.662;3.398;2024-03-02T01:42:20;3.15;;;1.42;;
54025;SDS011;74404;50.662;3.398;2024-03-02T01:44:46;2.90;;;1.45;;
54025;SDS011;74404;50.662;3.398;2024-03-02T01:47:11;2.03;;;1.38;;
54025;SDS011;74404;50.662;3.398;2024-03-02T01:49:37;1.58;;;1.25;;
54025;SDS011;74404;50.662;3.398;2024-03-02T01:52:04;2.85;;;1.40;;
54025;SDS011;74404;50.662;3.398;2024-03-02T01:54:29;2.08;;;1.63;;
54025;SDS011;74404;50.662;3.398;2024-03-02T01:56:55;3.55;;;1.75;;
54025;SDS011;74404;50.662;3.398;2024-03-02T01:59:20;2.00;;;1.80;;
54025;SDS011;74404;50.662;3.398;2024-03-02T02:01:46;2.13;;;1.60;;
54025;SDS011;74404;50.662;3.398;2024-03-02T02:04:11;2.85;;;1.65;;
54025;SDS011;74404;50.662;3.398;2024-03-02T02:06:38;2.15;;;1.80;;
54025;SDS011;74404;50.662;3.398;2024-03-02T02:09:04;2.60;;;1.70;;
54025;SDS011;74404;50.662;3.398;2024-03-02T02:11:29;2.30;;;1.77;;
54025;SDS011;74404;50.662;3.398;2024-03-02T02:13:55;3.75;;;1.90;;
54025;SDS011;74404;50.662;3.398;2024-03-02T02:16:23;2.40;;;1.80;;
54025;SDS011;74404;50.662;3.398;2024-03-02T02:18:48;4.20;;;1.80;;
54025;SDS011;74404;50.662;3.398;2024-03-02T02:21:14;3.00;;;1.65;;
54025;SDS011;74404;50.662;3.398;2024-03-02T02:23:39;4.47;;;1.90;;
54025;SDS011;74404;50.662;3.398;2024-03-02T02:26:05;4.20;;;2.08;;
54025;SDS011;74404;50.662;3.398;2024-03-02T02:28:30;2.28;;;1.73;;
54025;SDS011;74404;50.662;3.398;2024-03-02T02:30:56;1.70;;;1.50;;
54025;SDS011;74404;50.662;3.398;2024-03-02T02:33:22;5.68;;;2.15;;
54025;SDS011;74404;50.662;3.398;2024-03-02T02:35:47;4.35;;;1.88;;
54025;SDS011;74404;50.662;3.398;2024-03-02T02:38:13;3.28;;;1.60;;
54025;SDS011;74404;50.662;3.398;2024-03-02T02:40:38;3.20;;;1.90;;
54025;SDS011;74404;50.662;3.398;2024-03-02T02:43:04;3.38;;;2.00;;
54025;SDS011;74404;50.662;3.398;2024-03-02T02:45:29;3.35;;;1.90;;
54025;SDS011;74404;50.662;3.398;2024-03-02T02:47:55;3.88;;;2.10;;
54025;SDS011;74404;50.662;3.398;2024-03-02T02:50:21;4.10;;;2.00;;
54025;SDS011;74404;50.662;3.398;2024-03-02T02:52:46;3.70;;;2.00;;
54025;SDS011;74404;50.662;3.398;2024-03-02T02:55:12;4.63;;;2.08;;
54025;SDS011;74404;50.662;3.398;2024-03-02T02:57:40;1.95;;;1.52;;
54025;SDS011;74404;50.662;3.398;2024-03-02T03:00:08;3.67;;;1.85;;
54025;SDS011;74404;50.662;3.398;2024-03-02T03:02:41;4.30;;;1.70;;
54025;SDS011;74404;50.662;3.398;2024-03-02T03:05:08;2.95;;;1.70;;
54025;SDS011;74404;50.662;3.398;2024-03-02T03:07:35;4.00;;;1.90;;
54025;SDS011;74404;50.662;3.398;2024-03-02T03:10:01;3.20;;;1.50;;
54025;SDS011;74404;50.662;3.398;2024-03-02T03:12:28;3.97;;;1.77;;
54025;SDS011;74404;50.662;3.398;2024-03-02T03:14:54;4.97;;;1.80;;
54025;SDS011;74404;50.662;3.398;2024-03-02T03:17:21;2.88;;;1.92;;
54025;SDS011;74404;50.662;3.398;2024-03-02T03:19:46;3.92;;;1.77;;
54025;SDS011;74404;50.662;3.398;2024-03-02T03:22:12;3.45;;;1.90;;
54025;SDS011;74404;50.662;3.398;2024-03-02T03:24:38;3.55;;;1.70;;
54025;SDS011;74404;50.662;3.398;2024-03-02T03:27:04;1.98;;;1.60;;
54025;SDS011;74404;50.662;3.398;2024-03-02T03:29:29;5.13;;;1.70;;
54025;SDS011;74404;50.662;3.398;2024-03-02T03:31:55;5.45;;;1.45;;
54025;SDS011;74404;50.662;3.398;2024-03-02T03:34:20;2.72;;;1.58;;
54025;SDS011;74404;50.662;3.398;2024-03-02T03:36:46;2.50;;;1.60;;
54025;SDS011;74404;50.662;3.398;2024-03-02T03:39:11;4.88;;;1.50;;
54025;SDS011;74404;50.662;3.398;2024-03-02T03:41:36;2.88;;;1.73;;
54025;SDS011;74404;50.662;3.398;2024-03-02T03:44:02;3.67;;;1.55;;
54025;SDS011;74404;50.662;3.398;2024-03-02T03:46:28;2.72;;;1.55;;
54025;SDS011;74404;50.662;3.398;2024-03-02T03:48:54;2.70;;;1.65;;
54025;SDS011;74404;50.662;3.398;2024-03-02T03:51:21;3.50;;;1.70;;
54025;SDS011;74404;50.662;3.398;2024-03-02T03:53:48;3.53;;;1.67;;
54025;SDS011;74404;50.662;3.398;2024-03-02T03:56:13;3.13;;;1.50;;
54025;SDS011;74404;50.662;3.398;2024-03-02T03:58:39;5.10;;;1.48;;
54025;SDS011;74404;50.662;3.398;2024-03-02T04:01:04;3.42;;;1.58;;
54025;SDS011;74404;50.662;3.398;2024-03-02T04:03:30;6.72;;;1.60;;
54025;SDS011;74404;50.662;3.398;2024-03-02T04:05:55;4.85;;;1.48;;
54025;SDS011;74404;50.662;3.398;2024-03-02T04:08:21;3.60;;;1.70;;
54025;SDS011;74404;50.662;3.398;2024-03-02T04:10:46;3.53;;;1.48;;
54025;SDS011;74404;50.662;3.398;2024-03-02T04:13:12;5.45;;;1.38;;
54025;SDS011;74404;50.662;3.398;2024-03-02T04:15:37;4.43;;;1.50;;
54025;SDS011;74404;50.662;3.398;2024-03-02T04:18:03;4.60;;;1.40;;
54025;SDS011;74404;50.662;3.398;2024-03-02T04:20:29;2.70;;;1.25;;
54025;SDS011;74404;50.662;3.398;2024-03-02T04:22:55;4.30;;;1.50;;
54025;SDS011;74404;50.662;3.398;2024-03-02T04:25:20;5.30;;;1.50;;
54025;SDS011;74404;50.662;3.398;2024-03-02T04:27:46;2.20;;;1.40;;
54025;SDS011;74404;50.662;3.398;2024-03-02T04:30:12;4.43;;;1.60;;
54025;SDS011;74404;50.662;3.398;2024-03-02T04:32:38;6.93;;;1.58;;
54025;SDS011;74404;50.662;3.398;2024-03-02T04:35:04;4.05;;;1.58;;
54025;SDS011;74404;50.662;3.398;2024-03-02T04:37:31;4.78;;;1.65;;
54025;SDS011;74404;50.662;3.398;2024-03-02T04:39:59;5.32;;;1.63;;
54025;SDS011;74404;50.662;3.398;2024-03-02T04:42:24;3.75;;;1.40;;
54025;SDS011;74404;50.662;3.398;2024-03-02T04:44:50;2.05;;;1.20;;
54025;SDS011;74404;50.662;3.398;2024-03-02T04:47:15;2.45;;;1.50;;
54025;SDS011;74404;50.662;3.398;2024-03-02T04:49:41;3.45;;;1.50;;
54025;SDS011;74404;50.662;3.398;2024-03-02T04:52:06;3.83;;;1.45;;
54025;SDS011;74404;50.662;3.398;2024-03-02T04:54:32;3.55;;;1.60;;
54025;SDS011;74404;50.662;3.398;2024-03-02T04:56:57;4.88;;;1.73;;
54025;SDS011;74404;50.662;3.398;2024-03-02T04:59:23;3.85;;;1.58;;
54025;SDS011;74404;50.662;3.398;2024-03-02T05:01:49;2.05;;;1.40;;
54025;SDS011;74404;50.662;3.398;2024-03-02T05:04:14;3.28;;;1.33;;
54025;SDS011;74404;50.662;3.398;2024-03-02T05:06:40;4.78;;;1.50;;
54025;SDS011;74404;50.662;3.398;2024-03-02T05:09:06;4.25;;;1.60;;
54025;SDS011;74404;50.662;3.398;2024-03-02T05:11:32;5.53;;;1.63;;
54025;SDS011;74404;50.662;3.398;2024-03-02T05:14:04;5.63;;;1.55;;
54025;SDS011;74404;50.662;3.398;2024-03-02T05:16:33;5.68;;;1.80;;
54025;SDS011;74404;50.662;3.398;2024-03-02T05:18:59;4.20;;;1.58;;
54025;SDS011;74404;50.662;3.398;2024-03-02T05:21:24;3.63;;;1.48;;
54025;SDS011;74404;50.662;3.398;2024-03-02T05:23:50;3.40;;;1.48;;
54025;SDS011;74404;50.662;3.398;2024-03-02T05:26:15;4.60;;;1.60;;
54025;SDS011;74404;50.662;3.398;2024-03-02T05:28:41;3.42;;;1.60;;
54025;SDS011;74404;50.662;3.398;2024-03-02T05:31:09;5.22;;;1.65;;
54025;SDS011;74404;50.662;3.398;2024-03-02T05:33:37;3.60;;;1.52;;
54025;SDS011;74404;50.662;3.398;2024-03-02T05:36:03;6.53;;;1.75;;
54025;SDS011;74404;50.662;3.398;2024-03-02T05:38:29;4.38;;;1.50;;
54025;SDS011;74404;50.662;3.398;2024-03-02T05:40:55;3.78;;;1.40;;
54025;SDS011;74404;50.662;3.398;2024-03-02T05:43:20;3.03;;;1.33;;
54025;SDS011;74404;50.662;3.398;2024-03-02T05:45:46;4.25;;;1.48;;
54025;SDS011;74404;50.662;3.398;2024-03-02T05:48:11;3.58;;;1.73;;
54025;SDS011;74404;50.662;3.398;2024-03-02T05:50:36;3.47;;;1.40;;
54025;SDS011;74404;50.662;3.398;2024-03-02T05:53:02;2.75;;;1.30;;
54025;SDS011;74404;50.662;3.398;2024-03-02T05:55:27;2.83;;;1.23;;
54025;SDS011;74404;50.662;3.398;2024-03-02T05:57:53;3.85;;;1.42;;
54025;SDS011;74404;50.662;3.398;2024-03-02T06:00:41;3.45;;;1.40;;
54025;SDS011;74404;50.662;3.398;2024-03-02T06:03:06;4.60;;;1.40;;
54025;SDS011;74404;50.662;3.398;2024-03-02T06:05:33;3.13;;;1.23;;
54025;SDS011;74404;50.662;3.398;2024-03-02T06:07:58;5.25;;;1.50;;
54025;SDS011;74404;50.662;3.398;2024-03-02T06:10:23;4.85;;;1.55;;
54025;SDS011;74404;50.662;3.398;2024-03-02T06:12:49;5.03;;;1.30;;
54025;SDS011;74404;50.662;3.398;2024-03-02T06:15:14;3.72;;;1.30;;
54025;SDS011;74404;50.662;3.398;2024-03-02T06:17:40;5.35;;;1.52;;
54025;SDS011;74404;50.662;3.398;2024-03-02T06:20:05;6.20;;;1.50;;
54025;SDS011;74404;50.662;3.398;2024-03-02T06:22:33;4.35;;;1.42;;
54025;SDS011;74404;50.662;3.398;2024-03-02T06:24:58;5.68;;;1.60;;
54025;SDS011;74404;50.662;3.398;2024-03-02T06:27:24;5.07;;;1.50;;
54025;SDS011;74404;50.662;3.398;2024-03-02T06:29:49;6.05;;;1.60;;
54025;SDS011;74404;50.662;3.398;2024-03-02T06:32:16;2.83;;;1.38;;
54025;SDS011;74404;50.662;3.398;2024-03-02T06:34:42;5.15;;;1.70;;
54025;SDS011;74404;50.662;3.398;2024-03-02T06:37:07;6.10;;;1.63;;
54025;SDS011;74404;50.662;3.398;2024-03-02T06:39:33;4.97;;;2.00;;
54025;SDS011;74404;50.662;3.398;2024-03-02T06:41:59;5.45;;;1.67;;
54025;SDS011;74404;50.662;3.398;2024-03-02T06:44:25;3.40;;;1.60;;
54025;SDS011;74404;50.662;3.398;2024-03-02T06:46:51;5.88;;;2.03;;
54025;SDS011;74404;50.662;3.398;2024-03-02T06:49:16;3.53;;;1.73;;
54025;SDS011;74404;50.662;3.398;2024-03-02T06:51:43;7.63;;;1.90;;
54025;SDS011;74404;50.662;3.398;2024-03-02T06:54:09;5.90;;;2.20;;
54025;SDS011;74404;50.662;3.398;2024-03-02T06:56:34;6.20;;;2.35;;
54025;SDS011;74404;50.662;3.398;2024-03-02T06:59:00;7.13;;;2.20;;
54025;SDS011;74404;50.662;3.398;2024-03-02T07:01:25;7.03;;;2.13;;
54025;SDS011;74404;50.662;3.398;2024-03-02T07:03:51;8.55;;;2.65;;
54025;SDS011;74404;50.662;3.398;2024-03-02T07:06:17;13.10;;;3.10;;
54025;SDS011;74404;50.662;3.398;2024-03-02T07:08:42;8.25;;;2.50;;
54025;SDS011;74404;50.662;3.398;2024-03-02T07:11:08;6.90;;;2.58;;
54025;SDS011;74404;50.662;3.398;2024-03-02T07:13:34;9.88;;;2.50;;
54025;SDS011;74404;50.662;3.398;2024-03-02T07:16:00;13.07;;;3.05;;
54025;SDS011;74404;50.662;3.398;2024-03-02T07:18:29;7.78;;;2.80;;
54025;SDS011;74404;50.662;3.398;2024-03-02T07:20:58;7.68;;;2.95;;
54025;SDS011;74404;50.662;3.398;2024-03-02T07:23:26;7.38;;;2.58;;
54025;SDS011;74404;50.662;3.398;2024-03-02T07:25:55;8.30;;;2.80;;
54025;SDS011;74404;50.662;3.398;2024-03-02T07:28:24;6.57;;;2.60;;
54025;SDS011;74404;50.662;3.398;2024-03-02T07:31:00;10.18;;;3.33;;
54025;SDS011;74404;50.662;3.398;2024-03-02T07:33:26;8.95;;;3.15;;
54025;SDS011;74404;50.662;3.398;2024-03-02T07:35:51;6.65;;;2.63;;
54025;SDS011;74404;50.662;3.398;2024-03-02T07:38:17;9.27;;;3.15;;
54025;SDS011;74404;50.662;3.398;2024-03-02T07:40:43;9.18;;;3.17;;
54025;SDS011;74404;50.662;3.398;2024-03-02T07:43:08;8.40;;;2.97;;
54025;SDS011;74404;50.662;3.398;2024-03-02T07:45:34;7.45;;;3.00;;
54025;SDS011;74404;50.662;3.398;2024-03-02T07:48:03;8.07;;;2.97;;
54025;SDS011;74404;50.662;3.398;2024-03-02T07:50:31;11.73;;;5.55;;
54025;SDS011;74404;50.662;3.398;2024-03-02T07:52:59;36.22;;;18.85;;
54025;SDS011;74404;50.662;3.398;2024-03-02T07:55:25;24.58;;;12.25;;
54025;SDS011;74404;50.662;3.398;2024-03-02T07:57:51;25.83;;;11.95;;
54025;SDS011;74404;50.662;3.398;2024-03-02T08:00:16;29.48;;;12.60;;
54025;SDS011;74404;50.662;3.398;2024-03-02T08:02:42;22.40;;;11.30;;
54025;SDS011;74404;50.662;3.398;2024-03-02T08:05:08;21.10;;;10.23;;
54025;SDS011;74404;50.662;3.398;2024-03-02T08:07:33;26.42;;;10.48;;
54025;SDS011;74404;50.662;3.398;2024-03-02T08:09:59;23.13;;;10.18;;
54025;SDS011;74404;50.662;3.398;2024-03-02T08:12:25;23.50;;;9.75;;
54025;SDS011;74404;50.662;3.398;2024-03-02T08:14:50;17.45;;;8.25;;
54025;SDS011;74404;50.662;3.398;2024-03-02T08:17:16;18.77;;;9.25;;
54025;SDS011;74404;50.662;3.398;2024-03-02T08:19:42;18.55;;;8.02;;
54025;SDS011;74404;50.662;3.398;2024-03-02T08:22:07;16.58;;;8.15;;
54025;SDS011;74404;50.662;3.398;2024-03-02T08:24:33;17.23;;;7.38;;
54025;SDS011;74404;50.662;3.398;2024-03-02T08:27:01;14.57;;;6.97;;
54025;SDS011;74404;50.662;3.398;2024-03-02T08:29:27;14.98;;;7.45;;
54025;SDS011;74404;50.662;3.398;2024-03-02T08:31:54;13.82;;;6.22;;
54025;SDS011;74404;50.662;3.398;2024-03-02T08:34:19;14.88;;;6.60;;
54025;SDS011;74404;50.662;3.398;2024-03-02T08:36:45;13.00;;;5.78;;
54025;SDS011;74404;50.662;3.398;2024-03-02T08:39:11;16.35;;;6.32;;
54025;SDS011;74404;50.662;3.398;2024-03-02T08:41:46;13.27;;;6.28;;
54025;SDS011;74404;50.662;3.398;2024-03-02T08:44:12;13.63;;;6.15;;
54025;SDS011;74404;50.662;3.398;2024-03-02T08:46:39;14.15;;;5.75;;
54025;SDS011;74404;50.662;3.398;2024-03-02T08:49:05;16.30;;;5.70;;
54025;SDS011;74404;50.662;3.398;2024-03-02T08:51:31;11.70;;;5.30;;
54025;SDS011;74404;50.662;3.398;2024-03-02T08:53:57;10.68;;;4.95;;
54025;SDS011;74404;50.662;3.398;2024-03-02T08:56:23;14.88;;;5.47;;
54025;SDS011;74404;50.662;3.398;2024-03-02T08:58:49;14.95;;;4.90;;
54025;SDS011;74404;50.662;3.398;2024-03-02T09:01:15;14.45;;;4.88;;
54025;SDS011;74404;50.662;3.398;2024-03-02T09:03:42;13.35;;;4.85;;
54025;SDS011;74404;50.662;3.398;2024-03-02T09:06:10;12.52;;;4.78;;
54025;SDS011;74404;50.662;3.398;2024-03-02T09:08:35;10.45;;;4.40;;
54025;SDS011;74404;50.662;3.398;2024-03-02T09:11:02;9.93;;;4.43;;
54025;SDS011;74404;50.662;3.398;2024-03-02T09:13:28;10.15;;;3.88;;
54025;SDS011;74404;50.662;3.398;2024-03-02T09:15:54;12.82;;;3.95;;
54025;SDS011;74404;50.662;3.398;2024-03-02T09:18:19;12.02;;;4.30;;
54025;SDS011;74404;50.662;3.398;2024-03-02T09:20:45;9.77;;;3.60;;
54025;SDS011;74404;50.662;3.398;2024-03-02T09:23:11;10.05;;;3.63;;
54025;SDS011;74404;50.662;3.398;2024-03-02T09:25:36;12.23;;;3.80;;
54025;SDS011;74404;50.662;3.398;2024-03-02T09:28:02;11.35;;;3.65;;
54025;SDS011;74404;50.662;3.398;2024-03-02T09:30:28;8.75;;;3.75;;
54025;SDS011;74404;50.662;3.398;2024-03-02T09:32:54;6.95;;;3.42;;
54025;SDS011;74404;50.662;3.398;2024-03-02T09:35:20;10.13;;;3.40;;
54025;SDS011;74404;50.662;3.398;2024-03-02T09:37:45;7.65;;;3.40;;
54025;SDS011;74404;50.662;3.398;2024-03-02T09:40:11;7.68;;;3.28;;
54025;SDS011;74404;50.662;3.398;2024-03-02T09:42:38;10.18;;;3.15;;
54025;SDS011;74404;50.662;3.398;2024-03-02T09:45:04;13.35;;;2.78;;
54025;SDS011;74404;50.662;3.398;2024-03-02T09:47:30;8.82;;;2.83;;
54025;SDS011;74404;50.662;3.398;2024-03-02T09:49:56;12.63;;;3.30;;
54025;SDS011;74404;50.662;3.398;2024-03-02T09:52:24;14.68;;;2.67;;
54025;SDS011;74404;50.662;3.398;2024-03-02T09:54:50;11.50;;;2.53;;
54025;SDS011;74404;50.662;3.398;2024-03-02T09:57:16;12.73;;;2.90;;
54025;SDS011;74404;50.662;3.398;2024-03-02T09:59:42;10.02;;;2.67;;
54025;SDS011;74404;50.662;3.398;2024-03-02T10:02:08;15.25;;;3.08;;
54025;SDS011;74404;50.662;3.398;2024-03-02T10:04:33;9.05;;;2.85;;
54025;SDS011;74404;50.662;3.398;2024-03-02T10:07:13;9.05;;;2.42;;
54025;SDS011;74404;50.662;3.398;2024-03-02T10:09:44;9.38;;;2.00;;
54025;SDS011;74404;50.662;3.398;2024-03-02T10:12:14;8.90;;;2.38;;
54025;SDS011;74404;50.662;3.398;2024-03-02T10:14:43;11.73;;;2.65;;
54025;SDS011;74404;50.662;3.398;2024-03-02T10:17:10;10.50;;;2.50;;
54025;SDS011;74404;50.662;3.398;2024-03-02T10:19:37;7.07;;;2.30;;
54025;SDS011;74404;50.662;3.398;2024-03-02T10:22:08;8.65;;;2.50;;
54025;SDS011;74404;50.662;3.398;2024-03-02T10:24:38;8.60;;;2.05;;
54025;SDS011;74404;50.662;3.398;2024-03-02T10:27:19;7.43;;;2.25;;
54025;SDS011;74404;50.662;3.398;2024-03-02T10:29:48;8.68;;;2.15;;
54025;SDS011;74404;50.662;3.398;2024-03-02T10:32:14;9.48;;;2.08;;
54025;SDS011;74404;50.662;3.398;2024-03-02T10:34:41;8.70;;;1.90;;
54025;SDS011;74404;50.662;3.398;2024-03-02T10:37:07;9.25;;;2.35;;
54025;SDS011;74404;50.662;3.398;2024-03-02T10:39:36;5.15;;;1.80;;
54025;SDS011;74404;50.662;3.398;2024-03-02T10:42:04;7.13;;;2.13;;
54025;SDS011;74404;50.662;3.398;2024-03-02T10:44:31;9.88;;;2.00;;
54025;SDS011;74404;50.662;3.398;2024-03-02T10:46:57;6.45;;;1.70;;
54025;SDS011;74404;50.662;3.398;2024-03-02T10:49:26;6.82;;;1.58;;
54025;SDS011;74404;50.662;3.398;2024-03-02T10:51:54;8.38;;;2.00;;
54025;SDS011;74404;50.662;3.398;2024-03-02T10:54:19;6.55;;;1.80;;
54025;SDS011;74404;50.662;3.398;2024-03-02T10:56:51;8.50;;;1.58;;
54025;SDS011;74404;50.662;3.398;2024-03-02T10:59:31;8.88;;;3.17;;
54025;SDS011;74404;50.662;3.398;2024-03-02T11:01:59;12.18;;;2.67;;
54025;SDS011;74404;50.662;3.398;2024-03-02T11:04:26;10.95;;;5.03;;
54025;SDS011;74404;50.662;3.398;2024-03-02T11:06:54;15.98;;;8.70;;
54025;SDS011;74404;50.662;3.398;2024-03-02T11:09:25;17.30;;;9.90;;
54025;SDS011;74404;50.662;3.398;2024-03-02T11:12:02;18.90;;;9.23;;
54025;SDS011;74404;50.662;3.398;2024-03-02T11:14:29;19.70;;;9.55;;
54025;SDS011;74404;50.662;3.398;2024-03-02T11:16:59;17.80;;;9.05;;
54025;SDS011;74404;50.662;3.398;2024-03-02T11:19:26;16.50;;;8.43;;
54025;SDS011;74404;50.662;3.398;2024-03-02T11:21:52;15.57;;;7.75;;
54025;SDS011;74404;50.662;3.398;2024-03-02T11:26:48;16.67;;;7.60;;
54025;SDS011;74404;50.662;3.398;2024-03-02T11:32:00;14.48;;;6.95;;
54025;SDS011;74404;50.662;3.398;2024-03-02T11:34:30;13.45;;;6.97;;
54025;SDS011;74404;50.662;3.398;2024-03-02T11:36:57;14.10;;;6.25;;
54025;SDS011;74404;50.662;3.398;2024-03-02T11:39:24;12.55;;;6.35;;
54025;SDS011;74404;50.662;3.398;2024-03-02T11:41:51;12.55;;;6.47;;
54025;SDS011;74404;50.662;3.398;2024-03-02T11:44:16;11.77;;;6.60;;
54025;SDS011;74404;50.662;3.398;2024-03-02T11:46:44;9.57;;;5.43;;
54025;SDS011;74404;50.662;3.398;2024-03-02T11:49:14;10.18;;;5.45;;
54025;SDS011;74404;50.662;3.398;2024-03-02T11:51:40;10.98;;;5.35;;
54025;SDS011;74404;50.662;3.398;2024-03-02T11:54:25;13.80;;;5.43;;
54025;SDS011;74404;50.662;3.398;2024-03-02T11:56:53;10.77;;;5.95;;
54025;SDS011;74404;50.662;3.398;2024-03-02T11:59:19;19.08;;;10.43;;
54025;SDS011;74404;50.662;3.398;2024-03-02T12:01:46;32.08;;;19.70;;
54025;SDS011;74404;50.662;3.398;2024-03-02T12:04:13;39.97;;;26.50;;
54025;SDS011;74404;50.662;3.398;2024-03-02T12:06:38;38.58;;;25.90;;
54025;SDS011;74404;50.662;3.398;2024-03-02T12:09:04;55.53;;;37.17;;
54025;SDS011;74404;50.662;3.398;2024-03-02T12:11:30;52.55;;;35.47;;
54025;SDS011;74404;50.662;3.398;2024-03-02T12:13:55;50.13;;;33.33;;
54025;SDS011;74404;50.662;3.398;2024-03-02T12:16:25;46.08;;;31.35;;
54025;SDS011;74404;50.662;3.398;2024-03-02T12:18:50;38.85;;;27.45;;
54025;SDS011;74404;50.662;3.398;2024-03-02T12:21:16;40.58;;;26.50;;
54025;SDS011;74404;50.662;3.398;2024-03-02T12:23:41;33.55;;;24.17;;
54025;SDS011;74404;50.662;3.398;2024-03-02T12:26:07;30.33;;;20.38;;
54025;SDS011;74404;50.662;3.398;2024-03-02T12:28:33;31.67;;;22.08;;
54025;SDS011;74404;50.662;3.398;2024-03-02T12:31:01;28.73;;;20.15;;
54025;SDS011;74404;50.662;3.398;2024-03-02T12:33:26;31.05;;;20.50;;
54025;SDS011;74404;50.662;3.398;2024-03-02T12:35:54;31.98;;;19.23;;
54025;SDS011;74404;50.662;3.398;2024-03-02T12:38:19;26.88;;;17.95;;
54025;SDS011;74404;50.662;3.398;2024-03-02T12:40:47;28.55;;;17.98;;
54025;SDS011;74404;50.662;3.398;2024-03-02T12:43:14;26.50;;;17.23;;
54025;SDS011;74404;50.662;3.398;2024-03-02T12:45:39;28.83;;;17.33;;
54025;SDS011;74404;50.662;3.398;2024-03-02T12:48:05;22.08;;;14.82;;
54025;SDS011;74404;50.662;3.398;2024-03-02T12:50:31;21.40;;;14.27;;
54025;SDS011;74404;50.662;3.398;2024-03-02T12:52:56;22.45;;;14.55;;
54025;SDS011;74404;50.662;3.398;2024-03-02T12:55:22;25.52;;;14.55;;
54025;SDS011;74404;50.662;3.398;2024-03-02T12:57:49;23.23;;;15.98;;
54025;SDS011;74404;50.662;3.398;2024-03-02T13:00:18;386.77;;;282.38;;
54025;SDS011;74404;50.662;3.398;2024-03-02T13:02:45;490.13;;;379.90;;
54025;SDS011;74404;50.662;3.398;2024-03-02T13:05:11;509.52;;;409.90;;
54025;SDS011;74404;50.662;3.398;2024-03-02T13:07:39;536.13;;;439.20;;
54025;SDS011;74404;50.662;3.398;2024-03-02T13:10:06;530.67;;;414.65;;
54025;SDS011;74404;50.662;3.398;2024-03-02T13:12:33;529.80;;;419.92;;
54025;SDS011;74404;50.662;3.398;2024-03-02T13:15:01;509.75;;;400.80;;
54025;SDS011;74404;50.662;3.398;2024-03-02T13:17:28;482.55;;;367.88;;
54025;SDS011;74404;50.662;3.398;2024-03-02T13:19:58;714.50;;;446.10;;
54025;SDS011;74404;50.662;3.398;2024-03-02T13:22:27;622.00;;;447.52;;
54025;SDS011;74404;50.662;3.398;2024-03-02T13:24:53;602.45;;;426.92;;
54025;SDS011;74404;50.662;3.398;2024-03-02T13:27:22;544.67;;;387.60;;
54025;SDS011;74404;50.662;3.398;2024-03-02T13:29:48;560.10;;;363.27;;
54025;SDS011;74404;50.662;3.398;2024-03-02T13:32:14;560.63;;;354.45;;
54025;SDS011;74404;50.662;3.398;2024-03-02T13:34:42;530.40;;;334.70;;
54025;SDS011;74404;50.662;3.398;2024-03-02T13:37:08;497.77;;;319.20;;
54025;SDS011;74404;50.662;3.398;2024-03-02T13:39:34;476.83;;;303.42;;
54025;SDS011;74404;50.662;3.398;2024-03-02T13:42:06;469.42;;;289.45;;
54025;SDS011;74404;50.662;3.398;2024-03-02T13:44:34;426.40;;;264.73;;
54025;SDS011;74404;50.662;3.398;2024-03-02T13:47:00;405.77;;;243.18;;
54025;SDS011;74404;50.662;3.398;2024-03-02T13:49:26;425.10;;;234.98;;
54025;SDS011;74404;50.662;3.398;2024-03-02T13:51:59;407.27;;;225.90;;
54025;SDS011;74404;50.662;3.398;2024-03-02T13:54:27;380.45;;;211.45;;
54025;SDS011;74404;50.662;3.398;2024-03-02T13:56:55;339.65;;;188.25;;
54025;SDS011;74404;50.662;3.398;2024-03-02T13:59:23;322.88;;;178.48;;
54025;SDS011;74404;50.662;3.398;2024-03-02T14:01:50;278.73;;;165.13;;
54025;SDS011;74404;50.662;3.398;2024-03-02T14:04:15;257.08;;;144.35;;
54025;SDS011;74404;50.662;3.398;2024-03-02T14:06:42;234.27;;;132.35;;
54025;SDS011;74404;50.662;3.398;2024-03-02T14:09:08;214.30;;;118.50;;
54025;SDS011;74404;50.662;3.398;2024-03-02T14:11:34;265.73;;;183.00;;
54025;SDS011;74404;50.662;3.398;2024-03-02T14:13:59;273.25;;;183.80;;
54025;SDS011;74404;50.662;3.398;2024-03-02T14:16:25;357.33;;;246.57;;
54025;SDS011;74404;50.662;3.398;2024-03-02T14:18:50;489.13;;;239.55;;
54025;SDS011;74404;50.662;3.398;2024-03-02T14:21:15;602.92;;;260.33;;
54025;SDS011;74404;50.662;3.398;2024-03-02T14:23:41;543.25;;;263.40;;
54025;SDS011;74404;50.662;3.398;2024-03-02T14:26:06;972.83;;;347.10;;
54025;SDS011;74404;50.662;3.398;2024-03-02T14:28:32;914.40;;;340.58;;
54025;SDS011;74404;50.662;3.398;2024-03-02T14:30:57;795.65;;;306.60;;
54025;SDS011;74404;50.662;3.398;2024-03-02T14:33:25;786.58;;;299.35;;
54025;SDS011;74404;50.662;3.398;2024-03-02T14:35:51;808.03;;;311.50;;
54025;SDS011;74404;50.662;3.398;2024-03-02T14:38:17;831.83;;;394.55;;
54025;SDS011;74404;50.662;3.398;2024-03-02T14:40:42;837.30;;;413.27;;
54025;SDS011;74404;50.662;3.398;2024-03-02T14:43:08;793.63;;;376.77;;